Kegley, West Virginia
Current Conditions -  °F | °C
As of 2:52 AM on Saturday 25 Oct 2014 (Local Time) from KBLF Reporting Station
Clear Clear  
Wind Chill: 36°   Ceiling: Unl
Heat Index: 41°   Visibility: 10mi
Dew Point: 36°   Wind: 7mph
Humidity: 82%   Direction: 260°W
Pressure: 30.08"   Gusts: NA
Location:  37.4°N, 81.13°W
Report Text: KBLF 250652Z AUTO 26006KT 10SM CLR 05/02 A3008 RMK AO2 SLP178 T00500022
Loading
Personal Weather Stations






























Interactive Weather Map New forecast layout! Learn more

10-Day Weather Forecast

Advertisements
Track Severe Weather on mobile